sensor_id;sensor_type;location;lat;lon;timestamp;P1;durP1;ratioP1;P2;durP2;ratioP2
50010;SDS011;35899;50.352;19.390;2024-03-23T00:56:04;34.30;;;16.20;;
50010;SDS011;35899;50.352;19.390;2024-03-23T00:58:32;33.60;;;16.70;;
50010;SDS011;35899;50.352;19.390;2024-03-23T01:00:59;32.70;;;15.80;;
50010;SDS011;35899;50.352;19.390;2024-03-23T01:03:27;29.50;;;15.40;;
50010;SDS011;35899;50.352;19.390;2024-03-23T01:05:58;32.30;;;15.90;;
50010;SDS011;35899;50.352;19.390;2024-03-23T01:08:27;30.60;;;15.80;;
50010;SDS011;35899;50.352;19.390;2024-03-23T01:11:01;33.10;;;15.50;;
50010;SDS011;35899;50.352;19.390;2024-03-23T01:13:29;31.40;;;15.90;;
50010;SDS011;35899;50.352;19.390;2024-03-23T01:15:57;30.20;;;15.10;;
50010;SDS011;35899;50.352;19.390;2024-03-23T01:18:25;33.90;;;16.20;;
50010;SDS011;35899;50.352;19.390;2024-03-23T01:20:52;98.00;;;35.30;;
50010;SDS011;35899;50.352;19.390;2024-03-23T01:23:20;67.80;;;26.30;;
50010;SDS011;35899;50.352;19.390;2024-03-23T01:25:51;63.00;;;24.10;;
50010;SDS011;35899;50.352;19.390;2024-03-23T01:28:22;36.30;;;16.90;;
50010;SDS011;35899;50.352;19.390;2024-03-23T01:30:49;35.00;;;15.70;;
50010;SDS011;35899;50.352;19.390;2024-03-23T01:33:17;31.60;;;15.60;;
50010;SDS011;35899;50.352;19.390;2024-03-23T01:35:45;38.70;;;15.70;;
50010;SDS011;35899;50.352;19.390;2024-03-23T01:38:13;30.90;;;14.70;;
50010;SDS011;35899;50.352;19.390;2024-03-23T01:40:40;30.80;;;15.50;;
50010;SDS011;35899;50.352;19.390;2024-03-23T01:43:08;29.80;;;14.80;;
50010;SDS011;35899;50.352;19.390;2024-03-23T01:45:35;30.50;;;15.30;;
50010;SDS011;35899;50.352;19.390;2024-03-23T01:48:04;33.50;;;16.20;;
50010;SDS011;35899;50.352;19.390;2024-03-23T01:50:32;30.60;;;16.20;;
50010;SDS011;35899;50.352;19.390;2024-03-23T01:53:01;34.20;;;15.80;;
50010;SDS011;35899;50.352;19.390;2024-03-23T01:55:29;44.50;;;19.50;;
50010;SDS011;35899;50.352;19.390;2024-03-23T01:57:58;39.60;;;18.40;;
50010;SDS011;35899;50.352;19.390;2024-03-23T02:00:26;78.70;;;29.50;;
50010;SDS011;35899;50.352;19.390;2024-03-23T02:02:53;86.40;;;31.60;;
50010;SDS011;35899;50.352;19.390;2024-03-23T02:05:21;109.60;;;37.70;;
50010;SDS011;35899;50.352;19.390;2024-03-23T02:07:49;102.90;;;36.40;;
50010;SDS011;35899;50.352;19.390;2024-03-23T02:10:18;88.70;;;33.30;;
50010;SDS011;35899;50.352;19.390;2024-03-23T02:12:45;74.10;;;26.80;;
50010;SDS011;35899;50.352;19.390;2024-03-23T02:15:13;66.60;;;26.30;;
50010;SDS011;35899;50.352;19.390;2024-03-23T02:17:41;57.70;;;24.40;;
50010;SDS011;35899;50.352;19.390;2024-03-23T02:20:08;63.80;;;25.80;;
50010;SDS011;35899;50.352;19.390;2024-03-23T02:22:39;90.10;;;32.80;;
50010;SDS011;35899;50.352;19.390;2024-03-23T02:25:07;71.30;;;27.10;;
50010;SDS011;35899;50.352;19.390;2024-03-23T02:27:35;46.00;;;20.90;;
50010;SDS011;35899;50.352;19.390;2024-03-23T02:30:03;44.70;;;20.10;;
50010;SDS011;35899;50.352;19.390;2024-03-23T02:32:31;39.90;;;19.60;;
50010;SDS011;35899;50.352;19.390;2024-03-23T02:34:59;40.60;;;19.60;;
50010;SDS011;35899;50.352;19.390;2024-03-23T02:37:26;40.40;;;19.30;;
50010;SDS011;35899;50.352;19.390;2024-03-23T02:39:54;299.90;;;101.60;;
50010;SDS011;35899;50.352;19.390;2024-03-23T02:42:21;67.20;;;29.20;;
50010;SDS011;35899;50.352;19.390;2024-03-23T02:44:49;102.50;;;38.30;;
50010;SDS011;35899;50.352;19.390;2024-03-23T02:47:17;40.10;;;19.30;;
50010;SDS011;35899;50.352;19.390;2024-03-23T02:49:44;52.20;;;23.70;;
50010;SDS011;35899;50.352;19.390;2024-03-23T02:52:12;94.90;;;38.10;;
50010;SDS011;35899;50.352;19.390;2024-03-23T02:54:39;120.90;;;47.50;;
50010;SDS011;35899;50.352;19.390;2024-03-23T02:57:07;84.90;;;36.50;;
50010;SDS011;35899;50.352;19.390;2024-03-23T02:59:35;52.40;;;23.60;;
50010;SDS011;35899;50.352;19.390;2024-03-23T03:02:02;42.60;;;21.90;;
50010;SDS011;35899;50.352;19.390;2024-03-23T03:04:30;74.00;;;33.00;;
50010;SDS011;35899;50.352;19.390;2024-03-23T03:06:58;52.70;;;24.60;;
50010;SDS011;35899;50.352;19.390;2024-03-23T03:09:26;44.30;;;23.20;;
50010;SDS011;35899;50.352;19.390;2024-03-23T03:11:53;52.70;;;24.70;;
50010;SDS011;35899;50.352;19.390;2024-03-23T03:14:21;43.30;;;21.60;;
50010;SDS011;35899;50.352;19.390;2024-03-23T03:16:49;41.80;;;19.10;;
50010;SDS011;35899;50.352;19.390;2024-03-23T03:19:16;39.80;;;19.50;;
50010;SDS011;35899;50.352;19.390;2024-03-23T03:21:44;39.30;;;19.30;;
50010;SDS011;35899;50.352;19.390;2024-03-23T03:24:12;38.50;;;20.20;;
50010;SDS011;35899;50.352;19.390;2024-03-23T03:26:40;44.60;;;21.60;;
50010;SDS011;35899;50.352;19.390;2024-03-23T03:29:07;54.90;;;25.60;;
50010;SDS011;35899;50.352;19.390;2024-03-23T03:31:35;43.50;;;22.40;;
50010;SDS011;35899;50.352;19.390;2024-03-23T03:34:03;47.00;;;24.30;;
50010;SDS011;35899;50.352;19.390;2024-03-23T03:36:30;82.50;;;36.60;;
50010;SDS011;35899;50.352;19.390;2024-03-23T03:38:58;58.50;;;27.70;;
50010;SDS011;35899;50.352;19.390;2024-03-23T03:41:26;48.50;;;24.40;;
50010;SDS011;35899;50.352;19.390;2024-03-23T03:43:54;42.10;;;20.30;;
50010;SDS011;35899;50.352;19.390;2024-03-23T03:46:21;39.90;;;20.20;;
50010;SDS011;35899;50.352;19.390;2024-03-23T03:48:49;39.20;;;19.60;;
50010;SDS011;35899;50.352;19.390;2024-03-23T03:51:17;34.90;;;18.70;;
50010;SDS011;35899;50.352;19.390;2024-03-23T03:53:44;36.40;;;20.00;;
50010;SDS011;35899;50.352;19.390;2024-03-23T03:56:12;39.80;;;20.70;;
50010;SDS011;35899;50.352;19.390;2024-03-23T03:58:40;39.50;;;19.70;;
50010;SDS011;35899;50.352;19.390;2024-03-23T04:01:07;43.80;;;20.90;;
50010;SDS011;35899;50.352;19.390;2024-03-23T04:03:35;41.20;;;21.00;;
50010;SDS011;35899;50.352;19.390;2024-03-23T04:06:03;43.60;;;20.90;;
50010;SDS011;35899;50.352;19.390;2024-03-23T04:08:31;37.30;;;19.40;;
50010;SDS011;35899;50.352;19.390;2024-03-23T04:10:58;88.80;;;40.50;;
50010;SDS011;35899;50.352;19.390;2024-03-23T04:13:26;53.80;;;27.30;;
50010;SDS011;35899;50.352;19.390;2024-03-23T04:15:54;60.90;;;29.60;;
50010;SDS011;35899;50.352;19.390;2024-03-23T04:18:23;57.20;;;28.30;;
50010;SDS011;35899;50.352;19.390;2024-03-23T04:20:51;59.40;;;29.70;;
50010;SDS011;35899;50.352;19.390;2024-03-23T04:23:19;64.50;;;31.00;;
50010;SDS011;35899;50.352;19.390;2024-03-23T04:25:46;50.50;;;26.30;;
50010;SDS011;35899;50.352;19.390;2024-03-23T04:28:14;52.50;;;26.40;;
50010;SDS011;35899;50.352;19.390;2024-03-23T04:30:42;52.90;;;26.50;;
50010;SDS011;35899;50.352;19.390;2024-03-23T04:33:09;43.70;;;23.20;;
50010;SDS011;35899;50.352;19.390;2024-03-23T04:35:37;49.20;;;24.20;;
50010;SDS011;35899;50.352;19.390;2024-03-23T04:38:05;43.40;;;21.90;;
50010;SDS011;35899;50.352;19.390;2024-03-23T04:40:32;43.20;;;22.30;;
50010;SDS011;35899;50.352;19.390;2024-03-23T04:43:00;44.80;;;21.50;;
50010;SDS011;35899;50.352;19.390;2024-03-23T04:45:28;42.50;;;22.50;;
50010;SDS011;35899;50.352;19.390;2024-03-23T04:47:56;41.60;;;20.60;;
50010;SDS011;35899;50.352;19.390;2024-03-23T04:50:23;42.20;;;20.40;;
50010;SDS011;35899;50.352;19.390;2024-03-23T04:52:51;40.80;;;21.30;;
50010;SDS011;35899;50.352;19.390;2024-03-23T04:55:19;40.20;;;20.70;;
50010;SDS011;35899;50.352;19.390;2024-03-23T04:57:46;38.80;;;19.60;;
50010;SDS011;35899;50.352;19.390;2024-03-23T05:00:14;39.40;;;20.50;;
50010;SDS011;35899;50.352;19.390;2024-03-23T05:02:43;42.00;;;21.20;;
50010;SDS011;35899;50.352;19.390;2024-03-23T05:05:12;42.30;;;21.60;;
50010;SDS011;35899;50.352;19.390;2024-03-23T05:07:39;41.00;;;21.90;;
50010;SDS011;35899;50.352;19.390;2024-03-23T05:10:09;40.60;;;21.30;;
50010;SDS011;35899;50.352;19.390;2024-03-23T05:12:37;38.20;;;21.50;;
50010;SDS011;35899;50.352;19.390;2024-03-23T05:15:05;41.40;;;22.70;;
50010;SDS011;35899;50.352;19.390;2024-03-23T05:17:33;40.70;;;21.30;;
50010;SDS011;35899;50.352;19.390;2024-03-23T05:20:01;39.60;;;21.80;;
50010;SDS011;35899;50.352;19.390;2024-03-23T05:22:29;35.10;;;19.70;;
50010;SDS011;35899;50.352;19.390;2024-03-23T05:24:57;41.70;;;21.20;;
50010;SDS011;35899;50.352;19.390;2024-03-23T05:27:24;41.40;;;22.40;;
50010;SDS011;35899;50.352;19.390;2024-03-23T05:29:52;37.90;;;21.70;;
50010;SDS011;35899;50.352;19.390;2024-03-23T05:32:20;40.90;;;22.10;;
50010;SDS011;35899;50.352;19.390;2024-03-23T05:34:47;39.30;;;21.50;;
50010;SDS011;35899;50.352;19.390;2024-03-23T05:37:15;40.00;;;21.90;;
50010;SDS011;35899;50.352;19.390;2024-03-23T05:39:43;42.80;;;21.20;;
50010;SDS011;35899;50.352;19.390;2024-03-23T05:42:11;46.60;;;23.70;;
50010;SDS011;35899;50.352;19.390;2024-03-23T05:44:42;40.30;;;22.60;;
50010;SDS011;35899;50.352;19.390;2024-03-23T05:47:14;46.60;;;23.70;;
50010;SDS011;35899;50.352;19.390;2024-03-23T05:49:41;45.10;;;23.30;;
50010;SDS011;35899;50.352;19.390;2024-03-23T05:52:09;42.60;;;22.30;;
50010;SDS011;35899;50.352;19.390;2024-03-23T05:54:37;40.10;;;22.70;;
50010;SDS011;35899;50.352;19.390;2024-03-23T05:57:05;45.90;;;24.50;;
50010;SDS011;35899;50.352;19.390;2024-03-23T05:59:33;43.40;;;24.20;;
50010;SDS011;35899;50.352;19.390;2024-03-23T06:02:01;44.80;;;23.60;;
50010;SDS011;35899;50.352;19.390;2024-03-23T06:04:28;44.00;;;23.90;;
50010;SDS011;35899;50.352;19.390;2024-03-23T06:06:56;45.80;;;25.70;;
50010;SDS011;35899;50.352;19.390;2024-03-23T06:09:24;42.90;;;23.90;;
50010;SDS011;35899;50.352;19.390;2024-03-23T06:11:52;42.30;;;24.60;;
50010;SDS011;35899;50.352;19.390;2024-03-23T06:14:20;44.60;;;24.80;;
50010;SDS011;35899;50.352;19.390;2024-03-23T06:16:47;40.60;;;22.20;;
50010;SDS011;35899;50.352;19.390;2024-03-23T06:19:15;40.80;;;22.40;;
50010;SDS011;35899;50.352;19.390;2024-03-23T06:21:43;42.30;;;22.80;;
50010;SDS011;35899;50.352;19.390;2024-03-23T06:24:12;42.50;;;22.80;;
50010;SDS011;35899;50.352;19.390;2024-03-23T06:26:40;40.60;;;22.80;;
50010;SDS011;35899;50.352;19.390;2024-03-23T06:29:07;41.90;;;23.60;;
50010;SDS011;35899;50.352;19.390;2024-03-23T06:31:35;44.30;;;22.70;;
50010;SDS011;35899;50.352;19.390;2024-03-23T06:34:03;38.70;;;22.30;;
50010;SDS011;35899;50.352;19.390;2024-03-23T06:36:30;41.40;;;23.00;;
50010;SDS011;35899;50.352;19.390;2024-03-23T06:38:58;42.00;;;23.10;;
50010;SDS011;35899;50.352;19.390;2024-03-23T06:41:26;42.10;;;22.40;;
50010;SDS011;35899;50.352;19.390;2024-03-23T06:43:54;44.70;;;24.10;;
50010;SDS011;35899;50.352;19.390;2024-03-23T06:46:23;40.00;;;22.90;;
50010;SDS011;35899;50.352;19.390;2024-03-23T06:48:51;39.80;;;22.40;;
50010;SDS011;35899;50.352;19.390;2024-03-23T06:51:19;40.80;;;22.30;;
50010;SDS011;35899;50.352;19.390;2024-03-23T06:53:46;36.90;;;22.50;;
50010;SDS011;35899;50.352;19.390;2024-03-23T06:56:14;43.10;;;24.40;;
50010;SDS011;35899;50.352;19.390;2024-03-23T06:58:42;45.00;;;25.00;;
50010;SDS011;35899;50.352;19.390;2024-03-23T07:01:10;53.10;;;27.90;;
50010;SDS011;35899;50.352;19.390;2024-03-23T07:03:40;49.20;;;26.90;;
50010;SDS011;35899;50.352;19.390;2024-03-23T07:06:09;49.20;;;26.20;;
50010;SDS011;35899;50.352;19.390;2024-03-23T07:08:37;46.10;;;26.30;;
50010;SDS011;35899;50.352;19.390;2024-03-23T07:11:05;50.10;;;26.30;;
50010;SDS011;35899;50.352;19.390;2024-03-23T07:13:33;44.40;;;25.10;;
50010;SDS011;35899;50.352;19.390;2024-03-23T07:16:00;39.70;;;23.30;;
50010;SDS011;35899;50.352;19.390;2024-03-23T07:18:28;37.80;;;22.90;;
50010;SDS011;35899;50.352;19.390;2024-03-23T07:20:56;36.30;;;22.50;;
50010;SDS011;35899;50.352;19.390;2024-03-23T07:23:24;34.20;;;20.90;;
50010;SDS011;35899;50.352;19.390;2024-03-23T07:26:02;35.90;;;21.10;;
50010;SDS011;35899;50.352;19.390;2024-03-23T07:28:34;29.50;;;20.00;;
50010;SDS011;35899;50.352;19.390;2024-03-23T07:31:05;33.90;;;20.50;;
50010;SDS011;35899;50.352;19.390;2024-03-23T07:33:35;32.50;;;19.90;;
50010;SDS011;35899;50.352;19.390;2024-03-23T07:36:04;31.80;;;19.50;;
50010;SDS011;35899;50.352;19.390;2024-03-23T07:38:32;31.20;;;19.70;;
50010;SDS011;35899;50.352;19.390;2024-03-23T07:41:02;35.60;;;19.90;;
50010;SDS011;35899;50.352;19.390;2024-03-23T07:43:31;29.80;;;18.80;;
50010;SDS011;35899;50.352;19.390;2024-03-23T07:45:59;31.20;;;18.80;;
50010;SDS011;35899;50.352;19.390;2024-03-23T07:48:27;28.00;;;18.30;;
50010;SDS011;35899;50.352;19.390;2024-03-23T07:51:04;28.30;;;17.40;;
50010;SDS011;35899;50.352;19.390;2024-03-23T07:53:35;28.80;;;17.30;;
50010;SDS011;35899;50.352;19.390;2024-03-23T07:56:07;27.80;;;17.50;;
50010;SDS011;35899;50.352;19.390;2024-03-23T07:58:36;25.60;;;15.60;;
50010;SDS011;35899;50.352;19.390;2024-03-23T08:01:08;22.40;;;14.90;;
50010;SDS011;35899;50.352;19.390;2024-03-23T08:03:44;22.80;;;14.90;;
50010;SDS011;35899;50.352;19.390;2024-03-23T08:06:13;24.10;;;14.20;;
50010;SDS011;35899;50.352;19.390;2024-03-23T08:08:43;23.70;;;14.70;;
50010;SDS011;35899;50.352;19.390;2024-03-23T08:11:12;22.80;;;13.50;;
50010;SDS011;35899;50.352;19.390;2024-03-23T08:13:41;23.40;;;14.30;;
50010;SDS011;35899;50.352;19.390;2024-03-23T08:16:10;19.90;;;13.60;;
50010;SDS011;35899;50.352;19.390;2024-03-23T08:18:37;19.20;;;13.10;;
50010;SDS011;35899;50.352;19.390;2024-03-23T08:21:05;37.60;;;21.00;;
50010;SDS011;35899;50.352;19.390;2024-03-23T08:23:34;23.90;;;15.10;;
50010;SDS011;35899;50.352;19.390;2024-03-23T08:26:03;22.90;;;14.40;;
50010;SDS011;35899;50.352;19.390;2024-03-23T08:28:32;20.90;;;13.90;;
50010;SDS011;35899;50.352;19.390;2024-03-23T08:31:01;17.90;;;11.80;;
50010;SDS011;35899;50.352;19.390;2024-03-23T08:33:29;18.50;;;11.60;;
50010;SDS011;35899;50.352;19.390;2024-03-23T08:36:02;19.70;;;12.30;;
50010;SDS011;35899;50.352;19.390;2024-03-23T08:38:35;17.70;;;12.50;;
50010;SDS011;35899;50.352;19.390;2024-03-23T08:41:03;16.40;;;10.60;;
50010;SDS011;35899;50.352;19.390;2024-03-23T08:43:34;26.20;;;16.10;;
50010;SDS011;35899;50.352;19.390;2024-03-23T08:46:13;15.20;;;9.60;;
50010;SDS011;35899;50.352;19.390;2024-03-23T08:48:43;14.20;;;8.90;;
50010;SDS011;35899;50.352;19.390;2024-03-23T08:51:13;13.20;;;9.40;;
50010;SDS011;35899;50.352;19.390;2024-03-23T08:53:42;16.40;;;10.80;;
50010;SDS011;35899;50.352;19.390;2024-03-23T08:56:10;51.00;;;26.00;;
50010;SDS011;35899;50.352;19.390;2024-03-23T08:58:39;16.60;;;8.70;;
50010;SDS011;35899;50.352;19.390;2024-03-23T09:01:13;13.90;;;9.00;;
50010;SDS011;35899;50.352;19.390;2024-03-23T09:03:42;13.10;;;9.10;;
50010;SDS011;35899;50.352;19.390;2024-03-23T09:06:11;12.80;;;8.20;;
50010;SDS011;35899;50.352;19.390;2024-03-23T09:08:41;14.10;;;9.00;;
50010;SDS011;35899;50.352;19.390;2024-03-23T09:11:12;13.70;;;8.50;;
50010;SDS011;35899;50.352;19.390;2024-03-23T09:13:40;16.20;;;9.50;;
50010;SDS011;35899;50.352;19.390;2024-03-23T09:16:08;13.70;;;8.90;;
50010;SDS011;35899;50.352;19.390;2024-03-23T09:18:36;12.40;;;8.80;;
50010;SDS011;35899;50.352;19.390;2024-03-23T09:21:09;17.30;;;11.80;;
50010;SDS011;35899;50.352;19.390;2024-03-23T09:23:39;16.80;;;10.80;;
50010;SDS011;35899;50.352;19.390;2024-03-23T09:26:06;15.50;;;10.20;;
50010;SDS011;35899;50.352;19.390;2024-03-23T09:28:34;11.90;;;8.30;;
50010;SDS011;35899;50.352;19.390;2024-03-23T09:31:05;13.70;;;8.70;;
50010;SDS011;35899;50.352;19.390;2024-03-23T09:33:34;12.40;;;8.80;;
50010;SDS011;35899;50.352;19.390;2024-03-23T09:36:05;13.60;;;9.10;;
50010;SDS011;35899;50.352;19.390;2024-03-23T09:38:34;15.80;;;10.60;;
50010;SDS011;35899;50.352;19.390;2024-03-23T09:41:06;13.80;;;8.80;;
50010;SDS011;35899;50.352;19.390;2024-03-23T09:46:03;15.10;;;9.40;;
50010;SDS011;35899;50.352;19.390;2024-03-23T09:48:31;12.90;;;9.20;;
50010;SDS011;35899;50.352;19.390;2024-03-23T09:50:58;12.60;;;8.80;;
50010;SDS011;35899;50.352;19.390;2024-03-23T09:53:26;12.00;;;8.40;;
50010;SDS011;35899;50.352;19.390;2024-03-23T09:55:54;14.30;;;8.30;;
50010;SDS011;35899;50.352;19.390;2024-03-23T09:58:23;11.00;;;7.80;;
50010;SDS011;35899;50.352;19.390;2024-03-23T10:00:51;12.20;;;7.70;;
50010;SDS011;35899;50.352;19.390;2024-03-23T10:03:18;10.60;;;7.30;;
50010;SDS011;35899;50.352;19.390;2024-03-23T10:05:46;12.60;;;7.10;;
50010;SDS011;35899;50.352;19.390;2024-03-23T10:10:43;8.50;;;7.00;;
50010;SDS011;35899;50.352;19.390;2024-03-23T10:13:23;10.70;;;6.60;;
50010;SDS011;35899;50.352;19.390;2024-03-23T10:15:58;10.80;;;6.60;;
50010;SDS011;35899;50.352;19.390;2024-03-23T10:18:27;8.80;;;6.70;;
50010;SDS011;35899;50.352;19.390;2024-03-23T10:21:10;9.30;;;6.50;;
50010;SDS011;35899;50.352;19.390;2024-03-23T10:23:39;7.80;;;5.80;;
50010;SDS011;35899;50.352;19.390;2024-03-23T10:28:58;8.80;;;5.00;;
50010;SDS011;35899;50.352;19.390;2024-03-23T10:31:27;6.20;;;4.70;;
50010;SDS011;35899;50.352;19.390;2024-03-23T10:33:56;7.30;;;4.90;;
50010;SDS011;35899;50.352;19.390;2024-03-23T10:36:24;7.40;;;4.40;;
50010;SDS011;35899;50.352;19.390;2024-03-23T10:38:53;6.30;;;4.00;;
50010;SDS011;35899;50.352;19.390;2024-03-23T10:41:22;5.90;;;3.90;;
50010;SDS011;35899;50.352;19.390;2024-03-23T10:43:52;5.00;;;4.00;;
50010;SDS011;35899;50.352;19.390;2024-03-23T10:46:22;6.10;;;3.60;;
50010;SDS011;35899;50.352;19.390;2024-03-23T10:48:50;5.10;;;4.00;;
50010;SDS011;35899;50.352;19.390;2024-03-23T10:51:18;5.10;;;3.30;;
50010;SDS011;35899;50.352;19.390;2024-03-23T10:53:46;4.00;;;3.30;;
50010;SDS011;35899;50.352;19.390;2024-03-23T10:56:15;7.10;;;3.50;;
50010;SDS011;35899;50.352;19.390;2024-03-23T10:58:44;4.80;;;3.50;;
50010;SDS011;35899;50.352;19.390;2024-03-23T11:01:17;5.00;;;3.80;;
50010;SDS011;35899;50.352;19.390;2024-03-23T11:03:45;4.10;;;2.90;;
50010;SDS011;35899;50.352;19.390;2024-03-23T11:09:25;3.50;;;2.90;;
50010;SDS011;35899;50.352;19.390;2024-03-23T11:14:45;4.10;;;2.70;;
50010;SDS011;35899;50.352;19.390;2024-03-23T11:17:13;3.80;;;2.50;;
50010;SDS011;35899;50.352;19.390;2024-03-23T11:22:46;4.10;;;2.70;;
50010;SDS011;35899;50.352;19.390;2024-03-23T11:25:15;3.80;;;2.50;;
50010;SDS011;35899;50.352;19.390;2024-03-23T11:27:44;4.10;;;2.20;;
50010;SDS011;35899;50.352;19.390;2024-03-23T11:30:13;3.30;;;2.90;;
50010;SDS011;35899;50.352;19.390;2024-03-23T11:32:42;3.90;;;2.20;;
50010;SDS011;35899;50.352;19.390;2024-03-23T11:35:10;3.30;;;2.10;;
50010;SDS011;35899;50.352;19.390;2024-03-23T11:38:02;3.10;;;2.20;;
50010;SDS011;35899;50.352;19.390;2024-03-23T11:40:30;2.90;;;1.80;;
50010;SDS011;35899;50.352;19.390;2024-03-23T11:42:58;2.50;;;1.70;;
50010;SDS011;35899;50.352;19.390;2024-03-23T11:45:37;1.60;;;1.20;;
50010;SDS011;35899;50.352;19.390;2024-03-23T11:48:15;2.40;;;1.40;;
50010;SDS011;35899;50.352;19.390;2024-03-23T11:50:48;4.30;;;2.20;;
50010;SDS011;35899;50.352;19.390;2024-03-23T11:53:22;3.20;;;1.70;;
50010;SDS011;35899;50.352;19.390;2024-03-23T11:55:58;2.30;;;1.70;;
50010;SDS011;35899;50.352;19.390;2024-03-23T11:58:27;3.90;;;1.80;;
50010;SDS011;35899;50.352;19.390;2024-03-23T12:03:27;3.10;;;1.30;;
50010;SDS011;35899;50.352;19.390;2024-03-23T12:06:01;2.20;;;1.40;;
50010;SDS011;35899;50.352;19.390;2024-03-23T12:08:30;2.80;;;2.00;;
50010;SDS011;35899;50.352;19.390;2024-03-23T12:11:06;2.70;;;1.60;;
50010;SDS011;35899;50.352;19.390;2024-03-23T12:13:34;2.30;;;1.80;;
50010;SDS011;35899;50.352;19.390;2024-03-23T12:16:11;3.10;;;2.10;;
50010;SDS011;35899;50.352;19.390;2024-03-23T12:18:47;2.90;;;2.10;;
50010;SDS011;35899;50.352;19.390;2024-03-23T12:21:15;3.20;;;2.50;;
50010;SDS011;35899;50.352;19.390;2024-03-23T12:23:43;3.10;;;1.90;;
50010;SDS011;35899;50.352;19.390;2024-03-23T12:26:11;2.80;;;1.80;;
50010;SDS011;35899;50.352;19.390;2024-03-23T12:28:39;2.50;;;1.30;;
50010;SDS011;35899;50.352;19.390;2024-03-23T12:31:07;2.20;;;1.60;;
50010;SDS011;35899;50.352;19.390;2024-03-23T12:33:35;2.80;;;1.40;;
50010;SDS011;35899;50.352;19.390;2024-03-23T12:36:03;2.10;;;1.50;;
50010;SDS011;35899;50.352;19.390;2024-03-23T12:38:31;1.60;;;1.10;;
50010;SDS011;35899;50.352;19.390;2024-03-23T12:40:59;4.40;;;1.40;;
50010;SDS011;35899;50.352;19.390;2024-03-23T12:43:26;2.00;;;1.50;;
50010;SDS011;35899;50.352;19.390;2024-03-23T12:45:54;1.70;;;1.40;;
50010;SDS011;35899;50.352;19.390;2024-03-23T12:48:22;1.20;;;1.10;;
50010;SDS011;35899;50.352;19.390;2024-03-23T12:50:54;2.40;;;1.00;;
50010;SDS011;35899;50.352;19.390;2024-03-23T12:53:22;1.50;;;0.90;;
50010;SDS011;35899;50.352;19.390;2024-03-23T12:55:49;1.60;;;1.10;;
50010;SDS011;35899;50.352;19.390;2024-03-23T12:58:17;3.20;;;1.40;;
50010;SDS011;35899;50.352;19.390;2024-03-23T13:00:45;1.80;;;1.30;;
50010;SDS011;35899;50.352;19.390;2024-03-23T13:03:13;3.30;;;1.50;;
50010;SDS011;35899;50.352;19.390;2024-03-23T13:05:41;1.90;;;1.20;;
50010;SDS011;35899;50.352;19.390;2024-03-23T13:08:08;2.30;;;1.10;;
50010;SDS011;35899;50.352;19.390;2024-03-23T13:10:36;3.00;;;1.40;;
50010;SDS011;35899;50.352;19.390;2024-03-23T13:13:04;1.50;;;1.20;;
50010;SDS011;35899;50.352;19.390;2024-03-23T13:15:32;2.80;;;1.00;;
50010;SDS011;35899;50.352;19.390;2024-03-23T13:17:59;1.40;;;1.10;;
50010;SDS011;35899;50.352;19.390;2024-03-23T13:20:27;1.20;;;1.00;;
50010;SDS011;35899;50.352;19.390;2024-03-23T13:22:55;1.80;;;1.00;;
50010;SDS011;35899;50.352;19.390;2024-03-23T13:25:22;1.80;;;0.60;;
50010;SDS011;35899;50.352;19.390;2024-03-23T13:27:50;1.80;;;1.20;;
50010;SDS011;35899;50.352;19.390;2024-03-23T13:30:17;1.50;;;0.80;;
50010;SDS011;35899;50.352;19.390;2024-03-23T13:32:45;1.50;;;0.60;;
50010;SDS011;35899;50.352;19.390;2024-03-23T13:35:13;2.10;;;0.90;;
50010;SDS011;35899;50.352;19.390;2024-03-23T13:37:41;7.00;;;4.00;;
50010;SDS011;35899;50.352;19.390;2024-03-23T13:40:09;3.10;;;1.10;;
50010;SDS011;35899;50.352;19.390;2024-03-23T13:42:39;1.20;;;0.80;;
50010;SDS011;35899;50.352;19.390;2024-03-23T13:45:07;1.60;;;0.60;;
50010;SDS011;35899;50.352;19.390;2024-03-23T13:47:38;2.50;;;0.90;;
50010;SDS011;35899;50.352;19.390;2024-03-23T13:50:06;1.80;;;1.00;;
50010;SDS011;35899;50.352;19.390;2024-03-23T13:52:34;5.30;;;1.10;;
50010;SDS011;35899;50.352;19.390;2024-03-23T13:55:02;2.50;;;1.70;;
50010;SDS011;35899;50.352;19.390;2024-03-23T13:57:31;2.60;;;0.80;;
50010;SDS011;35899;50.352;19.390;2024-03-23T13:59:58;3.70;;;2.00;;
50010;SDS011;35899;50.352;19.390;2024-03-23T14:02:26;8.40;;;1.70;;
50010;SDS011;35899;50.352;19.390;2024-03-23T14:04:54;4.70;;;1.10;;
50010;SDS011;35899;50.352;19.390;2024-03-23T14:07:21;6.80;;;1.80;;
50010;SDS011;35899;50.352;19.390;2024-03-23T14:09:49;3.80;;;1.40;;
50010;SDS011;35899;50.352;19.390;2024-03-23T14:12:17;5.10;;;1.40;;
50010;SDS011;35899;50.352;19.390;2024-03-23T14:14:44;3.10;;;1.20;;
50010;SDS011;35899;50.352;19.390;2024-03-23T14:17:12;2.80;;;1.30;;
50010;SDS011;35899;50.352;19.390;2024-03-23T14:19:40;2.80;;;1.10;;
50010;SDS011;35899;50.352;19.390;2024-03-23T14:22:07;1.50;;;0.60;;
50010;SDS011;35899;50.352;19.390;2024-03-23T14:24:35;1.80;;;1.30;;
50010;SDS011;35899;50.352;19.390;2024-03-23T14:27:03;1.90;;;0.90;;
50010;SDS011;35899;50.352;19.390;2024-03-23T14:29:31;1.70;;;0.80;;
50010;SDS011;35899;50.352;19.390;2024-03-23T14:32:00;3.10;;;0.70;;
50010;SDS011;35899;50.352;19.390;2024-03-23T14:34:28;1.70;;;0.60;;
50010;SDS011;35899;50.352;19.390;2024-03-23T14:36:56;1.90;;;0.70;;
50010;SDS011;35899;50.352;19.390;2024-03-23T14:39:24;1.40;;;0.80;;
50010;SDS011;35899;50.352;19.390;2024-03-23T14:41:52;2.40;;;0.60;;
50010;SDS011;35899;50.352;19.390;2024-03-23T14:44:20;3.40;;;0.70;;
50010;SDS011;35899;50.352;19.390;2024-03-23T14:46:48;1.50;;;0.80;;
50010;SDS011;35899;50.352;19.390;2024-03-23T14:49:19;2.30;;;0.70;;
50010;SDS011;35899;50.352;19.390;2024-03-23T14:51:47;2.20;;;0.70;;
50010;SDS011;35899;50.352;19.390;2024-03-23T14:54:15;1.60;;;1.00;;
50010;SDS011;35899;50.352;19.390;2024-03-23T14:56:46;3.10;;;1.20;;
50010;SDS011;35899;50.352;19.390;2024-03-23T14:59:13;3.30;;;1.20;;
50010;SDS011;35899;50.352;19.390;2024-03-23T15:01:41;1.60;;;0.80;;
50010;SDS011;35899;50.352;19.390;2024-03-23T15:04:10;3.70;;;1.10;;
50010;SDS011;35899;50.352;19.390;2024-03-23T15:06:37;4.80;;;1.70;;
50010;SDS011;35899;50.352;19.390;2024-03-23T15:09:05;2.60;;;0.90;;
50010;SDS011;35899;50.352;19.390;2024-03-23T15:11:33;1.70;;;0.60;;
50010;SDS011;35899;50.352;19.390;2024-03-23T15:14:01;2.80;;;1.10;;
50010;SDS011;35899;50.352;19.390;2024-03-23T15:16:29;4.20;;;1.50;;
50010;SDS011;35899;50.352;19.390;2024-03-23T15:18:56;4.90;;;1.40;;
50010;SDS011;35899;50.352;19.390;2024-03-23T15:21:25;2.70;;;1.50;;
50010;SDS011;35899;50.352;19.390;2024-03-23T15:23:53;4.90;;;2.00;;
50010;SDS011;35899;50.352;19.390;2024-03-23T15:26:21;7.30;;;3.20;;
50010;SDS011;35899;50.352;19.390;2024-03-23T15:28:49;13.00;;;7.00;;
50010;SDS011;35899;50.352;19.390;2024-03-23T15:31:17;16.70;;;10.30;;
50010;SDS011;35899;50.352;19.390;2024-03-23T15:33:45;13.30;;;8.60;;
50010;SDS011;35899;50.352;19.390;2024-03-23T15:36:12;11.20;;;6.50;;
50010;SDS011;35899;50.352;19.390;2024-03-23T15:38:40;11.90;;;6.20;;
50010;SDS011;35899;50.352;19.390;2024-03-23T15:41:08;8.70;;;5.60;;